Time;durP1;ratioP1;P1;durP2;ratioP2;P2;SDS_P1;SDS_P2;PMS_P1;PMS_P2;Temp;Humidity;BMP_temperature;BMP_pressure;BME280_temperature;BME280_humidity;BME280_pressure;Samples;Min_cycle;Max_cycle;Signal;HPM_P1;HPM_P2
2023/04/25 00:00:25;;;;;;;4.40;1.92;;;;;;;7.53;100.00;97583.56;2569635;28;20055;-83
2023/04/25 00:02:00;;;;;;;2.65;2.05;;;;;;;7.27;100.00;97582.59;2569195;28;20176;-83
2023/04/25 00:03:18;;;;;;;2.38;1.90;;;;;;;7.27;100.00;97582.59;2569354;28;20542;-83
2023/04/25 00:04:34;;;;;;;3.45;2.00;;;;;;;7.27;100.00;97580.00;2579150;28;20086;-83
2023/04/25 00:05:51;;;;;;;3.70;2.05;;;;;;;7.47;100.00;97582.00;2574480;28;20418;-83
2023/04/25 00:07:06;;;;;;;6.53;2.58;;;;;;;7.29;100.00;97576.44;2569710;28;20137;-83
2023/04/25 00:08:22;;;;;;;3.33;2.03;;;;;;;7.41;100.00;97579.56;2569428;28;20058;-83
2023/04/25 00:09:38;;;;;;;7.25;2.38;;;;;;;7.64;100.00;97576.28;2570127;28;20050;-83
2023/04/25 00:10:53;;;;;;;3.42;2.40;;;;;;;7.60;100.00;97582.50;2568848;28;20540;-83
2023/04/25 00:12:09;;;;;;;3.53;2.42;;;;;;;7.74;100.00;97579.47;2570168;28;20055;-83
2023/04/25 00:13:25;;;;;;;3.28;2.20;;;;;;;7.61;100.00;97579.00;2569467;28;20067;-83
2023/04/25 00:14:41;;;;;;;3.50;2.38;;;;;;;7.56;100.00;97573.91;2570077;28;20303;-83
2023/04/25 00:15:57;;;;;;;4.60;2.53;;;;;;;7.69;100.00;97568.34;2569314;28;20055;-83
2023/04/25 00:17:13;;;;;;;6.35;2.50;;;;;;;7.59;100.00;97580.78;2570001;28;20061;-83
2023/04/25 00:18:29;;;;;;;3.10;2.05;;;;;;;7.75;100.00;97571.59;2569247;28;20058;-83
2023/04/25 00:19:46;;;;;;;3.92;2.35;;;;;;;7.80;100.00;97570.59;2570094;28;20047;-84
2023/04/25 00:21:02;;;;;;;4.25;2.17;;;;;;;7.80;100.00;97575.81;2569548;28;20054;-83
2023/04/25 00:22:18;;;;;;;5.07;2.35;;;;;;;7.93;100.00;97584.13;2569694;28;20061;-83
2023/04/25 00:23:35;;;;;;;4.90;2.50;;;;;;;7.91;100.00;97582.41;2569174;28;20511;-83
2023/04/25 00:24:53;;;;;;;4.28;2.42;;;;;;;7.84;100.00;97573.06;2570203;28;20490;-83
2023/04/25 00:26:08;;;;;;;3.92;2.17;;;;;;;7.90;100.00;97572.03;2569637;28;20405;-83
2023/04/25 00:27:24;;;;;;;6.05;2.47;;;;;;;7.75;100.00;97566.41;2570022;28;20066;-83
2023/04/25 00:28:40;;;;;;;6.25;2.35;;;;;;;7.80;100.00;97570.59;2578775;28;20499;-83
2023/04/25 00:29:56;;;;;;;3.55;2.30;;;;;;;7.81;100.00;97567.97;2575129;28;20062;-83
2023/04/25 00:31:11;;;;;;;3.08;2.25;;;;;;;7.60;100.00;97562.50;2569266;28;20502;-83
2023/04/25 00:32:27;;;;;;;2.85;2.15;;;;;;;7.47;100.00;97566.38;2569164;28;20461;-83
2023/04/25 00:33:43;;;;;;;4.65;2.30;;;;;;;7.35;100.00;97570.19;2569243;28;20057;-83
2023/04/25 00:34:58;;;;;;;4.22;2.40;;;;;;;7.37;100.00;97557.13;2569669;28;20506;-84
2023/04/25 00:36:14;;;;;;;4.53;2.22;;;;;;;7.33;100.00;97570.25;2569377;28;20047;-83
2023/04/25 00:37:30;;;;;;;3.47;2.30;;;;;;;7.18;100.00;97570.66;2569900;28;20063;-81
2023/04/25 00:38:45;;;;;;;4.03;1.92;;;;;;;7.14;100.00;97569.94;2569442;28;20063;-81
2023/04/25 00:40:01;;;;;;;4.28;2.85;;;;;;;7.05;100.00;97578.84;2568982;28;20427;-82
2023/04/25 00:41:16;;;;;;;4.00;2.47;;;;;;;7.15;100.00;97579.44;2564638;28;20051;-84
2023/04/25 00:42:32;;;;;;;5.70;2.70;;;;;;;7.09;100.00;97574.38;2565338;28;20203;-84
2023/04/25 00:43:49;;;;;;;4.68;2.38;;;;;;;7.05;100.00;97572.78;2569705;28;20086;-84
2023/04/25 00:45:07;;;;;;;5.22;2.30;;;;;;;7.03;100.00;97564.16;2569134;28;20163;-83
2023/04/25 00:46:22;;;;;;;4.68;2.75;;;;;;;6.96;100.00;97570.41;2570055;28;20517;-83
2023/04/25 00:47:38;;;;;;;4.45;2.40;;;;;;;7.13;100.00;97565.63;2569096;28;20055;-81
2023/04/25 00:48:54;;;;;;;4.18;3.03;;;;;;;7.20;100.00;97563.69;2569678;28;20525;-84
2023/04/25 00:50:10;;;;;;;3.90;2.55;;;;;;;7.18;100.00;97563.72;2568996;28;20055;-81
2023/04/25 00:51:26;;;;;;;4.30;2.47;;;;;;;7.30;100.00;97562.50;2569487;28;20514;-83
2023/04/25 00:52:44;;;;;;;5.60;2.58;;;;;;;7.24;100.00;97559.22;2568973;28;20149;-82
2023/04/25 00:54:00;;;;;;;3.80;2.53;;;;;;;7.23;100.00;97554.91;2569529;28;20161;-82
2023/04/25 00:55:17;;;;;;;4.07;2.80;;;;;;;7.11;100.00;97551.75;2569104;28;20601;-82
2023/04/25 00:56:32;;;;;;;4.95;2.88;;;;;;;7.17;100.00;97550.75;2569744;28;20058;-83
2023/04/25 00:57:50;;;;;;;4.85;2.63;;;;;;;7.15;100.00;97548.19;2568620;28;20054;-82
2023/04/25 00:59:06;;;;;;;3.88;2.70;;;;;;;6.82;100.00;97544.78;2569683;28;20082;-82
2023/04/25 01:00:21;;;;;;;4.65;2.70;;;;;;;6.61;100.00;97553.13;2569101;28;20086;-82
2023/04/25 01:01:38;;;;;;;4.80;2.70;;;;;;;6.68;100.00;97555.53;2569555;28;20069;-82
2023/04/25 01:02:54;;;;;;;4.28;2.65;;;;;;;6.71;100.00;97545.09;2569079;28;20067;-82
2023/04/25 01:04:10;;;;;;;4.45;2.78;;;;;;;6.82;100.00;97550.00;2569482;28;20137;-82
2023/04/25 01:05:26;;;;;;;4.50;2.50;;;;;;;6.88;100.00;97549.81;2569073;28;20073;-82
2023/04/25 01:06:42;;;;;;;5.28;2.25;;;;;;;6.71;100.00;97560.69;2569265;28;20075;-82
2023/04/25 01:07:58;;;;;;;3.95;2.50;;;;;;;6.68;100.00;97561.63;2569011;28;20461;-82
2023/04/25 01:09:14;;;;;;;5.18;2.60;;;;;;;6.62;100.00;97561.75;2569670;28;20090;-83
2023/04/25 01:10:30;;;;;;;7.45;2.42;;;;;;;6.75;100.00;97568.34;2569060;28;20082;-82
2023/04/25 01:11:46;;;;;;;5.40;2.72;;;;;;;6.81;100.00;97566.50;2569074;28;20047;-82
2023/04/25 01:13:01;;;;;;;8.55;2.83;;;;;;;6.69;100.00;97565.06;2568942;28;21085;-83
2023/04/25 01:14:17;;;;;;;6.93;3.20;;;;;;;6.89;100.00;97567.13;2569188;28;20150;-82
2023/04/25 01:15:33;;;;;;;5.72;3.28;;;;;;;6.96;100.00;97560.00;2558503;29;20574;-82
2023/04/25 01:16:48;;;;;;;5.10;3.60;;;;;;;6.76;100.00;97566.63;2562314;28;20719;-83
2023/04/25 01:18:06;;;;;;;7.03;3.33;;;;;;;6.64;100.00;97563.44;2569469;28;20055;-83
2023/04/25 01:19:21;;;;;;;6.00;3.25;;;;;;;6.67;100.00;97561.66;2568651;28;20051;-83
2023/04/25 01:20:38;;;;;;;7.97;3.35;;;;;;;6.73;100.00;97564.94;2569674;28;20525;-83
2023/04/25 01:21:54;;;;;;;5.70;3.30;;;;;;;6.81;100.00;97564.72;2568695;28;20059;-83
2023/04/25 01:23:09;;;;;;;5.53;3.00;;;;;;;6.92;100.00;97569.66;2569562;28;20548;-83
2023/04/25 01:24:25;;;;;;;5.80;3.72;;;;;;;7.03;100.00;97567.59;2568904;28;20061;-83
2023/04/25 01:25:41;;;;;;;5.68;3.28;;;;;;;7.02;100.00;97559.84;2569083;28;20206;-83
2023/04/25 01:27:00;;;;;;;6.20;3.20;;;;;;;7.29;100.00;97562.56;2568890;28;20106;-83
2023/04/25 01:28:16;;;;;;;5.20;3.10;;;;;;;7.15;100.00;97557.75;2569525;28;20051;-83
2023/04/25 01:29:32;;;;;;;3.88;2.88;;;;;;;7.29;100.00;97554.75;2568780;28;20513;-83
2023/04/25 01:30:48;;;;;;;7.50;3.10;;;;;;;7.42;100.00;97550.91;2569414;28;20059;-83
2023/04/25 01:32:05;;;;;;;5.28;3.30;;;;;;;7.35;100.00;97554.56;2568835;28;21159;-83
2023/04/25 01:33:21;;;;;;;4.55;3.10;;;;;;;7.30;100.00;97554.69;2569353;28;20081;-83
2023/04/25 01:34:38;;;;;;;5.20;3.25;;;;;;;7.27;100.00;97553.97;2568510;28;20922;-83
2023/04/25 01:35:54;;;;;;;6.03;3.03;;;;;;;7.12;100.00;97550.88;2569743;28;20081;-83
2023/04/25 01:37:10;;;;;;;5.53;3.17;;;;;;;7.08;100.00;97549.25;2568468;28;20054;-83
2023/04/25 01:38:25;;;;;;;4.32;3.10;;;;;;;7.10;100.00;97544.84;2569183;28;20480;-83
2023/04/25 01:39:41;;;;;;;5.20;2.90;;;;;;;7.02;100.00;97545.06;2568711;28;20134;-83
2023/04/25 01:40:57;;;;;;;5.07;3.00;;;;;;;7.00;100.00;97546.03;2569276;28;20059;-83
2023/04/25 01:42:13;;;;;;;6.57;2.88;;;;;;;6.90;100.00;97535.88;2568539;28;20468;-83
2023/04/25 01:43:28;;;;;;;4.75;3.00;;;;;;;6.91;100.00;97532.38;2569292;28;20082;-82
2023/04/25 01:44:44;;;;;;;4.75;3.00;;;;;;;6.77;100.00;97543.19;2568680;28;20711;-83
2023/04/25 01:46:00;;;;;;;6.10;2.90;;;;;;;6.52;100.00;97531.72;2569106;28;20047;-83
2023/04/25 01:47:15;;;;;;;4.18;2.83;;;;;;;6.24;100.00;97533.25;2568741;28;20054;-83
2023/04/25 01:48:31;;;;;;;5.07;2.90;;;;;;;6.16;100.00;97525.66;2569176;28;20913;-83
2023/04/25 01:49:46;;;;;;;4.45;3.00;;;;;;;6.17;100.00;97529.13;2568707;28;20102;-82
2023/04/25 01:51:02;;;;;;;4.57;2.97;;;;;;;6.18;100.00;97541.22;2568775;28;20501;-83
2023/04/25 01:52:18;;;;;;;5.55;3.10;;;;;;;6.20;100.00;97542.03;2568532;28;20133;-82
2023/04/25 01:53:33;;;;;;;4.68;3.28;;;;;;;6.17;100.00;97536.91;2568438;28;20141;-82
2023/04/25 01:54:50;;;;;;;6.40;3.40;;;;;;;6.24;100.00;97528.06;2568811;28;20150;-82
2023/04/25 01:56:06;;;;;;;7.32;3.38;;;;;;;6.36;100.00;97538.16;2558676;29;20502;-82
2023/04/25 01:57:22;;;;;;;5.20;3.35;;;;;;;6.00;100.00;97534.69;2559213;29;20059;-84
2023/04/25 01:58:37;;;;;;;5.20;3.45;;;;;;;6.03;100.00;97530.31;2558594;29;20230;-84
2023/04/25 01:59:59;;;;;;;5.75;3.55;;;;;;;6.11;100.00;97532.72;2559080;29;20055;-84
2023/04/25 02:01:15;;;;;;;6.72;3.13;;;;;;;5.80;100.00;97518.69;2558546;29;20058;-83
2023/04/25 02:02:30;;;;;;;6.28;3.45;;;;;;;5.74;100.00;97526.63;2558748;29;20055;-83
2023/04/25 02:03:46;;;;;;;3.88;2.63;;;;;;;5.75;100.00;97522.28;2558645;29;20517;-82
2023/04/25 02:05:01;;;;;;;4.97;3.28;;;;;;;5.86;100.00;97519.44;2558227;29;20062;-82
2023/04/25 02:06:17;;;;;;;5.68;3.00;;;;;;;5.85;100.00;97520.31;2557768;29;20505;-82
2023/04/25 02:07:33;;;;;;;6.15;3.10;;;;;;;5.86;100.00;97517.69;2558764;29;20704;-82
2023/04/25 02:08:48;;;;;;;5.43;3.50;;;;;;;5.94;100.00;97523.56;2558482;29;20525;-82
2023/04/25 02:10:04;;;;;;;5.32;3.70;;;;;;;6.04;100.00;97521.63;2559011;29;20171;-82
2023/04/25 02:11:20;;;;;;;6.93;3.50;;;;;;;5.55;100.00;97530.53;2557867;29;20070;-82
2023/04/25 02:12:36;;;;;;;6.88;3.35;;;;;;;5.68;100.00;97531.97;2558849;29;20062;-82
2023/04/25 02:13:51;;;;;;;6.25;3.30;;;;;;;5.85;100.00;97528.09;2558471;29;20066;-82
2023/04/25 02:15:07;;;;;;;7.15;3.63;;;;;;;5.93;100.00;97536.59;2558910;29;20550;-82
2023/04/25 02:16:23;;;;;;;4.25;2.72;;;;;;;5.96;100.00;97539.09;2558334;29;20066;-82
2023/04/25 02:17:39;;;;;;;6.85;2.97;;;;;;;6.02;100.00;97535.53;2558922;29;20143;-82
2023/04/25 02:18:54;;;;;;;4.85;3.65;;;;;;;6.01;100.00;97536.41;2558473;29;20055;-83
2023/04/25 02:20:10;;;;;;;6.43;3.28;;;;;;;6.03;100.00;97532.91;2558818;29;20111;-82
2023/04/25 02:21:26;;;;;;;7.35;3.10;;;;;;;5.95;100.00;97529.59;2558267;29;20224;-82
2023/04/25 02:22:42;;;;;;;5.60;3.13;;;;;;;6.00;100.00;97535.53;2558911;29;20113;-82
2023/04/25 02:23:58;;;;;;;5.82;3.25;;;;;;;6.10;100.00;97533.63;2558239;29;20498;-83
2023/04/25 02:25:15;;;;;;;5.78;3.67;;;;;;;5.84;100.00;97534.19;2558802;29;20054;-82
2023/04/25 02:26:31;;;;;;;5.93;3.53;;;;;;;5.85;100.00;97526.38;2557929;29;20482;-83
2023/04/25 02:27:48;;;;;;;5.72;3.40;;;;;;;6.02;100.00;97530.34;2558175;29;20127;-83
2023/04/25 02:29:03;;;;;;;4.72;2.85;;;;;;;5.74;100.00;97538.75;2558678;29;20208;-83
2023/04/25 02:30:19;;;;;;;4.85;3.10;;;;;;;5.76;100.00;97539.56;2558201;29;20397;-82
2023/04/25 02:31:35;;;;;;;4.88;3.13;;;;;;;5.67;100.00;97539.81;2558870;29;20070;-82
2023/04/25 02:32:50;;;;;;;6.00;2.97;;;;;;;5.65;100.00;97537.22;2558252;29;20059;-82
2023/04/25 02:34:06;;;;;;;4.53;2.88;;;;;;;5.51;100.00;97532.34;2558910;29;20130;-82
2023/04/25 02:35:22;;;;;;;4.10;2.90;;;;;;;5.63;100.00;97533.81;2558161;29;20066;-83
2023/04/25 02:36:37;;;;;;;5.43;3.10;;;;;;;5.32;100.00;97535.34;2558932;29;20051;-82
2023/04/25 02:37:54;;;;;;;6.75;3.00;;;;;;;5.49;100.00;97527.19;2558143;29;20359;-82
2023/04/25 02:39:10;;;;;;;5.07;3.00;;;;;;;5.62;100.00;97519.13;2558809;29;20153;-82
2023/04/25 02:40:26;;;;;;;5.68;3.00;;;;;;;5.47;100.00;97521.19;2558149;28;20055;-83
2023/04/25 02:41:41;;;;;;;6.47;2.90;;;;;;;5.53;100.00;97519.34;2558973;29;20109;-83
2023/04/25 02:42:57;;;;;;;4.32;3.22;;;;;;;5.58;100.00;97512.28;2558043;29;20881;-82
2023/04/25 02:44:12;;;;;;;5.30;2.97;;;;;;;5.22;100.00;97510.47;2558759;29;20465;-83
2023/04/25 02:45:28;;;;;;;8.68;3.40;;;;;;;5.35;100.00;97511.06;2557161;29;20055;-84
2023/04/25 02:46:44;;;;;;;6.65;3.33;;;;;;;5.30;100.00;97512.91;2558116;29;20090;-83
2023/04/25 02:47:59;;;;;;;5.85;3.53;;;;;;;5.43;100.00;97503.94;2567159;28;20358;-83
2023/04/25 02:49:15;;;;;;;5.95;3.53;;;;;;;5.37;100.00;97512.72;2564270;28;20529;-83
2023/04/25 02:50:30;;;;;;;7.38;3.47;;;;;;;5.40;100.00;97511.81;2558113;29;20110;-83
2023/04/25 02:51:46;;;;;;;6.35;3.90;;;;;;;5.72;100.00;97511.97;2558793;29;20183;-83
2023/04/25 02:53:01;;;;;;;6.22;3.33;;;;;;;5.62;100.00;97513.94;2558094;29;20118;-83
2023/04/25 02:54:17;;;;;;;5.40;3.45;;;;;;;5.92;100.00;97514.94;2558579;29;20063;-84
2023/04/25 02:55:33;;;;;;;5.00;3.22;;;;;;;6.01;100.00;97511.31;2563709;28;20058;-83
2023/04/25 02:56:48;;;;;;;5.25;3.60;;;;;;;6.11;100.00;97518.88;2568529;28;20054;-84
2023/04/25 02:58:05;;;;;;;7.38;3.33;;;;;;;6.15;100.00;97512.72;2567935;28;20055;-82
2023/04/25 02:59:20;;;;;;;6.18;3.40;;;;;;;6.23;100.00;97505.56;2567987;28;20058;-84
2023/04/25 03:00:36;;;;;;;6.55;3.58;;;;;;;6.24;100.00;97507.28;2568514;28;20055;-81
2023/04/25 03:01:51;;;;;;;5.75;3.50;;;;;;;6.29;100.00;97513.22;2568152;28;20075;-81
2023/04/25 03:03:07;;;;;;;6.72;3.67;;;;;;;6.31;100.00;97514.03;2568452;28;20065;-81
2023/04/25 03:04:23;;;;;;;7.30;3.60;;;;;;;6.33;100.00;97513.97;2568042;28;20051;-82
2023/04/25 03:05:39;;;;;;;6.07;3.67;;;;;;;6.37;100.00;97515.63;2568078;28;20093;-82
2023/04/25 03:06:54;;;;;;;7.30;4.05;;;;;;;6.42;100.00;97516.34;2569352;28;20051;-83
2023/04/25 03:08:10;;;;;;;6.85;3.65;;;;;;;6.43;100.00;97509.41;2559850;29;20070;-83
2023/04/25 03:09:26;;;;;;;6.55;3.60;;;;;;;6.41;100.00;97508.56;2563507;28;20054;-83
2023/04/25 03:10:41;;;;;;;5.90;3.67;;;;;;;6.42;100.00;97500.75;2570723;28;20101;-82
2023/04/25 03:11:57;;;;;;;6.55;3.92;;;;;;;6.21;100.00;97499.56;2569741;28;20124;-83
2023/04/25 03:13:13;;;;;;;6.80;3.55;;;;;;;5.95;100.00;97498.44;2570611;28;20102;-82
2023/04/25 03:14:28;;;;;;;7.45;3.50;;;;;;;5.73;100.00;97501.56;2570009;28;20117;-83
2023/04/25 03:15:44;;;;;;;5.57;3.67;;;;;;;5.93;100.00;97500.22;2570708;28;20051;-83
2023/04/25 03:17:00;;;;;;;5.13;3.35;;;;;;;6.03;100.00;97498.28;2569739;28;20498;-82
2023/04/25 03:18:15;;;;;;;5.30;3.08;;;;;;;6.20;100.00;97501.28;2570538;28;20065;-82
2023/04/25 03:19:31;;;;;;;5.53;3.47;;;;;;;6.16;100.00;97504.03;2569570;28;20055;-82
2023/04/25 03:20:46;;;;;;;6.18;3.60;;;;;;;6.12;100.00;97510.19;2559603;29;20081;-82
2023/04/25 03:22:02;;;;;;;4.82;3.00;;;;;;;6.18;100.00;97502.25;2563262;28;20055;-83
2023/04/25 03:23:18;;;;;;;5.43;2.95;;;;;;;6.27;100.00;97506.34;2570499;28;20061;-82
2023/04/25 03:24:33;;;;;;;6.22;3.20;;;;;;;6.22;100.00;97498.66;2569994;28;20083;-82
2023/04/25 03:25:49;;;;;;;5.35;3.50;;;;;;;6.04;100.00;97493.03;2570596;28;20548;-82
2023/04/25 03:27:05;;;;;;;4.63;3.00;;;;;;;6.06;100.00;97493.84;2569357;28;20051;-81
2023/04/25 03:28:20;;;;;;;6.07;3.17;;;;;;;6.08;100.00;97496.44;2570001;28;20126;-82
2023/04/25 03:29:36;;;;;;;4.68;3.00;;;;;;;6.12;100.00;97490.25;2569996;28;20055;-82
2023/04/25 03:30:51;;;;;;;6.05;3.42;;;;;;;6.16;100.00;97491.03;2569860;28;20051;-82
2023/04/25 03:32:07;;;;;;;7.05;3.47;;;;;;;6.29;100.00;97492.44;2570321;28;20141;-82
2023/04/25 03:33:22;;;;;;;4.85;3.10;;;;;;;6.35;100.00;97496.59;2569588;28;20066;-82
2023/04/25 03:34:38;;;;;;;5.18;3.30;;;;;;;6.33;100.00;97495.78;2570395;28;20532;-83
2023/04/25 03:35:54;;;;;;;4.43;2.97;;;;;;;6.34;100.00;97495.75;2559264;29;20502;-83
2023/04/25 03:37:11;;;;;;;6.57;3.20;;;;;;;5.89;100.00;97490.81;2563957;28;20051;-83
2023/04/25 03:38:26;;;;;;;8.70;3.50;;;;;;;6.05;100.00;97489.56;2568889;28;20526;-83
2023/04/25 03:39:42;;;;;;;6.22;3.67;;;;;;;6.12;100.00;97491.97;2578749;28;20082;-82
2023/04/25 03:40:57;;;;;;;6.28;3.08;;;;;;;6.21;100.00;97484.78;2575219;28;20058;-82
2023/04/25 03:42:13;;;;;;;4.60;3.50;;;;;;;6.06;100.00;97488.66;2570204;28;20505;-83
2023/04/25 03:43:29;;;;;;;6.50;3.70;;;;;;;6.14;100.00;97487.59;2569764;28;20572;-83
2023/04/25 03:44:44;;;;;;;6.05;3.50;;;;;;;6.12;100.00;97490.25;2570425;28;20202;-83
2023/04/25 03:46:00;;;;;;;7.82;4.15;;;;;;;6.15;100.00;97479.78;2569768;28;20051;-83
2023/04/25 03:47:16;;;;;;;4.47;3.08;;;;;;;6.23;100.00;97489.97;2570153;28;20054;-83
2023/04/25 03:48:31;;;;;;;6.05;3.42;;;;;;;6.36;100.00;97493.97;2569676;28;20054;-83
2023/04/25 03:49:48;;;;;;;6.28;3.55;;;;;;;6.21;100.00;97491.75;2570303;28;20061;-82
2023/04/25 03:51:04;;;;;;;6.80;3.30;;;;;;;5.93;100.00;97497.63;2569748;28;20529;-82
2023/04/25 03:52:20;;;;;;;5.57;3.35;;;;;;;6.05;100.00;97496.47;2559341;29;20059;-83
2023/04/25 03:53:35;;;;;;;8.40;3.70;;;;;;;6.26;100.00;97500.28;2563195;28;20093;-83
2023/04/25 03:54:51;;;;;;;5.50;3.85;;;;;;;6.32;100.00;97500.13;2569878;28;20306;-83
2023/04/25 03:56:07;;;;;;;6.78;3.78;;;;;;;6.40;100.00;97501.66;2578795;28;20062;-83
2023/04/25 03:57:23;;;;;;;5.65;3.60;;;;;;;6.28;100.00;97506.28;2575335;28;20066;-82
2023/04/25 03:58:38;;;;;;;6.38;3.45;;;;;;;6.31;100.00;97494.97;2569685;28;20066;-83
2023/04/25 03:59:54;;;;;;;4.75;3.10;;;;;;;6.21;100.00;97492.59;2570110;28;20065;-82
2023/04/25 04:01:10;;;;;;;5.68;3.55;;;;;;;6.26;100.00;97494.25;2566975;28;20058;-84
2023/04/25 04:02:26;;;;;;;7.25;4.00;;;;;;;6.12;100.00;97494.59;2569749;28;20055;-83
2023/04/25 04:03:42;;;;;;;5.53;3.63;;;;;;;5.89;100.00;97490.81;2569687;28;20058;-83
2023/04/25 04:04:57;;;;;;;7.47;4.30;;;;;;;6.11;100.00;97495.47;2569403;28;20090;-83
2023/04/25 04:06:13;;;;;;;10.35;4.43;;;;;;;6.21;100.00;97486.56;2570076;28;20054;-81
2023/04/25 04:07:29;;;;;;;8.10;3.80;;;;;;;6.19;100.00;97494.38;2569155;28;20081;-84
2023/04/25 04:08:45;;;;;;;5.32;3.70;;;;;;;6.45;100.00;97494.63;2570179;28;20405;-82
2023/04/25 04:10:00;;;;;;;5.93;4.05;;;;;;;6.48;100.00;97497.13;2569499;28;20063;-81
2023/04/25 04:11:16;;;;;;;6.95;3.95;;;;;;;6.41;100.00;97498.16;2570219;28;20105;-84
2023/04/25 04:12:31;;;;;;;6.05;3.47;;;;;;;6.18;100.00;97494.44;2569314;28;20054;-81
2023/04/25 04:13:47;;;;;;;4.95;3.50;;;;;;;6.02;100.00;97502.63;2570207;28;20058;-81
2023/04/25 04:15:06;;;;;;;6.00;4.07;;;;;;;6.14;100.00;97491.06;2569529;28;20097;-81
2023/04/25 04:16:21;;;;;;;6.43;3.83;;;;;;;6.07;100.00;97498.16;2569548;28;20690;-82
2023/04/25 04:17:37;;;;;;;6.75;4.05;;;;;;;6.41;100.00;97498.16;2568444;28;20085;-82
2023/04/25 04:18:53;;;;;;;7.53;4.47;;;;;;;6.17;100.00;97497.94;2569707;28;20508;-81
2023/04/25 04:20:09;;;;;;;8.10;4.30;;;;;;;6.08;100.00;97496.44;2569360;28;20050;-81
2023/04/25 04:21:27;;;;;;;8.10;4.15;;;;;;;6.26;100.00;97495.09;2569943;28;20059;-82
2023/04/25 04:22:43;;;;;;;6.18;3.92;;;;;;;6.54;100.00;97491.75;2568659;28;20082;-81
2023/04/25 04:23:59;;;;;;;6.57;3.75;;;;;;;6.52;100.00;97498.75;2569820;28;20051;-82
2023/04/25 04:25:15;;;;;;;7.43;4.20;;;;;;;6.27;100.00;97501.16;2569029;28;20074;-81
2023/04/25 04:26:32;;;;;;;9.43;4.20;;;;;;;6.29;100.00;97496.75;2569624;28;20055;-82
2023/04/25 04:27:48;;;;;;;7.68;4.10;;;;;;;6.24;100.00;97499.47;2569044;28;20047;-82
2023/04/25 04:29:03;;;;;;;6.82;4.30;;;;;;;6.32;100.00;97497.53;2569648;28;20051;-82
2023/04/25 04:30:19;;;;;;;6.57;3.95;;;;;;;6.32;100.00;97491.47;2569131;28;20089;-83
2023/04/25 04:31:35;;;;;;;6.38;4.50;;;;;;;6.34;100.00;97505.28;2569556;28;20051;-83
2023/04/25 04:32:51;;;;;;;6.95;4.10;;;;;;;6.49;100.00;97502.28;2569198;28;20069;-83
2023/04/25 04:34:07;;;;;;;6.97;4.20;;;;;;;6.52;100.00;97501.34;2569827;28;20497;-84
2023/04/25 04:35:23;;;;;;;6.00;4.15;;;;;;;6.44;100.00;97498.13;2569417;28;20055;-83
2023/04/25 04:36:39;;;;;;;6.95;4.15;;;;;;;6.46;100.00;97494.56;2569410;28;20082;-82
2023/04/25 04:37:56;;;;;;;5.47;3.75;;;;;;;6.56;100.00;97495.16;2569310;28;20418;-83
2023/04/25 04:39:12;;;;;;;6.20;4.15;;;;;;;6.33;100.00;97491.44;2558672;29;20139;-82
2023/04/25 04:40:30;;;;;;;6.50;4.03;;;;;;;6.14;100.00;97488.47;2562743;28;20088;-85
2023/04/25 04:41:46;;;;;;;5.28;3.28;;;;;;;6.17;100.00;97493.56;2568696;28;20087;-82
2023/04/25 04:43:01;;;;;;;8.48;4.25;;;;;;;6.32;100.00;97492.34;2569326;28;20509;-83
2023/04/25 04:44:17;;;;;;;5.30;3.67;;;;;;;6.32;100.00;97487.13;2568484;28;20085;-85
2023/04/25 04:45:33;;;;;;;6.88;4.05;;;;;;;6.23;100.00;97484.78;2568943;28;20059;-83
2023/04/25 04:46:48;;;;;;;5.22;3.50;;;;;;;6.32;100.00;97489.75;2569063;28;20409;-88
2023/04/25 04:48:06;;;;;;;7.00;4.15;;;;;;;6.50;100.00;97482.34;2569674;28;20054;-83
2023/04/25 04:49:21;;;;;;;4.88;3.55;;;;;;;6.64;100.00;97485.41;2566538;28;20055;-82
2023/04/25 04:50:38;;;;;;;6.22;3.75;;;;;;;6.65;100.00;97486.28;2568615;28;20138;-83
2023/04/25 04:51:54;;;;;;;6.03;3.42;;;;;;;6.30;100.00;97488.06;2558351;29;20138;-83
2023/04/25 04:53:10;;;;;;;5.80;3.78;;;;;;;6.48;100.00;97497.97;2563124;28;20046;-85
2023/04/25 04:54:26;;;;;;;4.90;3.35;;;;;;;6.56;100.00;97496.94;2568721;28;20062;-83
2023/04/25 04:55:42;;;;;;;9.77;3.72;;;;;;;6.53;100.00;97504.81;2569513;28;20594;-83
2023/04/25 04:56:58;;;;;;;7.30;4.15;;;;;;;6.79;100.00;97504.09;2568647;28;20078;-83
2023/04/25 04:58:13;;;;;;;8.82;4.22;;;;;;;6.85;100.00;97503.06;2569437;28;20102;-83
2023/04/25 04:59:29;;;;;;;7.50;3.65;;;;;;;6.82;100.00;97503.16;2569155;28;20061;-83
2023/04/25 05:00:45;;;;;;;6.22;3.70;;;;;;;6.68;100.00;97498.31;2567847;28;20062;-85
2023/04/25 05:02:00;;;;;;;5.85;3.90;;;;;;;6.81;100.00;97502.28;2567166;28;20055;-83
2023/04/25 05:03:16;;;;;;;6.15;4.40;;;;;;;6.97;100.00;97502.72;2569102;28;20066;-82
2023/04/25 05:04:31;;;;;;;8.93;4.93;;;;;;;7.03;100.00;97506.91;2569021;28;20065;-83
2023/04/25 05:05:47;;;;;;;8.73;4.65;;;;;;;7.09;100.00;97500.66;2569271;28;20051;-82
2023/04/25 05:07:03;;;;;;;7.93;4.50;;;;;;;7.15;100.00;97509.16;2568776;28;20498;-83
2023/04/25 05:08:19;;;;;;;9.43;5.30;;;;;;;7.19;100.00;97497.75;2569012;28;20118;-82
2023/04/25 05:09:35;;;;;;;7.70;4.75;;;;;;;7.29;100.00;97502.69;2566666;28;20466;-86
2023/04/25 05:10:50;;;;;;;8.52;3.92;;;;;;;7.25;100.00;97503.66;2569217;28;20051;-82
2023/04/25 05:12:06;;;;;;;5.25;3.72;;;;;;;7.30;100.00;97509.59;2558146;29;20522;-82
2023/04/25 05:13:22;;;;;;;9.05;4.70;;;;;;;7.46;100.00;97505.63;2562429;28;20098;-83
2023/04/25 05:14:37;;;;;;;8.50;3.90;;;;;;;7.53;100.00;97505.41;2568581;28;20062;-81
2023/04/25 05:15:53;;;;;;;7.07;3.72;;;;;;;7.24;100.00;97505.41;2568850;28;20109;-81
2023/04/25 05:17:09;;;;;;;5.32;3.60;;;;;;;7.24;100.00;97504.56;2569678;28;20051;-81
2023/04/25 05:18:24;;;;;;;7.38;4.20;;;;;;;7.26;100.00;97505.34;2568435;28;20135;-81
2023/04/25 05:19:40;;;;;;;7.18;4.22;;;;;;;7.60;100.00;97506.97;2568998;28;20501;-82
2023/04/25 05:20:55;;;;;;;7.07;4.45;;;;;;;7.73;100.00;97510.88;2568838;28;20054;-81
2023/04/25 05:22:11;;;;;;;6.82;4.60;;;;;;;7.70;100.00;97508.38;2569272;28;20142;-82
2023/04/25 05:23:27;;;;;;;6.40;3.78;;;;;;;7.72;100.00;97509.19;2568452;28;20058;-81
2023/04/25 05:24:43;;;;;;;6.68;3.72;;;;;;;7.93;100.00;97511.16;2569228;28;20117;-82
2023/04/25 05:25:59;;;;;;;6.53;3.70;;;;;;;7.66;100.00;97513.72;2569111;28;20061;-82
2023/04/25 05:27:17;;;;;;;5.78;3.50;;;;;;;7.86;100.00;97511.31;2569237;28;20047;-82
2023/04/25 05:28:33;;;;;;;11.45;4.80;;;;;;;7.90;100.00;97506.88;2577762;28;20097;-82
2023/04/25 05:29:48;;;;;;;7.55;3.95;;;;;;;8.03;100.00;97508.19;2564301;28;20651;-82
2023/04/25 05:31:04;;;;;;;7.75;4.00;;;;;;;7.95;100.00;97506.72;2561878;28;20062;-82
2023/04/25 05:32:19;;;;;;;9.68;4.00;;;;;;;8.02;100.00;97511.69;2569716;28;20055;-82
2023/04/25 05:33:35;;;;;;;6.60;3.97;;;;;;;8.14;100.00;97504.38;2568805;28;20067;-82
2023/04/25 05:34:51;;;;;;;5.90;3.90;;;;;;;8.05;100.00;97502.94;2569218;28;20082;-83
2023/04/25 05:36:07;;;;;;;7.00;4.00;;;;;;;8.26;100.00;97506.59;2568167;28;20054;-83
2023/04/25 05:37:22;;;;;;;7.65;4.10;;;;;;;8.36;100.00;97506.25;2568728;28;20054;-83
2023/04/25 05:38:38;;;;;;;7.03;3.90;;;;;;;8.45;100.00;97495.50;2568692;28;20061;-83
2023/04/25 05:39:54;;;;;;;6.82;4.00;;;;;;;8.49;100.00;97497.09;2568508;28;20042;-83
2023/04/25 05:41:09;;;;;;;7.10;3.70;;;;;;;8.38;100.00;97502.69;2568516;28;20054;-83
2023/04/25 05:42:25;;;;;;;5.70;3.97;;;;;;;8.54;100.00;97494.34;2568979;28;20070;-83
2023/04/25 05:43:46;;;;;;;7.28;3.80;;;;;;;8.64;100.00;97489.66;2568442;28;20065;-82
2023/04/25 05:45:02;;;;;;;5.43;3.77;;;;;;;8.81;100.00;97497.75;2569054;28;20464;-83
2023/04/25 05:46:18;;;;;;;5.93;3.65;;;;;;;8.57;100.00;97495.13;2568645;28;20464;-83
2023/04/25 05:47:33;;;;;;;6.45;3.92;;;;;;;8.72;100.00;97496.31;2569022;28;20802;-85
2023/04/25 05:48:49;;;;;;;8.10;4.28;;;;;;;8.77;100.00;97493.53;2567897;28;20055;-84
2023/04/25 05:50:05;;;;;;;7.45;4.95;;;;;;;8.81;100.00;97494.28;2570668;28;20429;-92
2023/04/25 05:51:21;;;;;;;7.28;4.78;;;;;;;8.97;100.00;97494.59;2569468;28;20058;-92
2023/04/25 05:52:36;;;;;;;5.55;3.92;;;;;;;9.07;100.00;97498.53;2568236;28;20510;-90
2023/04/25 05:53:52;;;;;;;7.07;4.22;;;;;;;9.06;100.00;97496.00;2569773;28;20490;-91
2023/04/25 05:55:09;;;;;;;7.03;4.22;;;;;;;9.12;100.00;97483.56;2568336;28;20050;-92
2023/04/25 05:56:24;;;;;;;6.88;4.40;;;;;;;9.26;100.00;97493.47;2569467;28;20054;-91
2023/04/25 05:57:41;;;;;;;7.20;4.45;;;;;;;9.38;100.00;97486.97;2568604;28;20093;-91